d.16/8 - Nu er de lyse nætter slut. Synlige planeter lige efter solnedgang, ikke så højt over horisonten: Jupiter mod sydvest, Saturn lidt sydligere og Mars mod sydøst.


Vejr3>N more information Vejr3>N


Vejr3>V more information Vejr3>V


3 timers nedbørs radar more information rain snow radar


besøg nogle andre vejrsider:

Template dokumentation
og downloads

And another site


Select another period ( hide this area )

enheder periode Custom range Directly to
metrisk engelsk både
dagens ugenligt månedlig årligt
use both date-selectors for a custom range
forgående dag
With this date

WeatherUnderground graphs for this period ( click here )


dagens sammenfatning af torsdag 18 oktober 2018
tid Temp. ( °C ) Dew pt. ( °C ) vind ( km/h ) fra vindstød ( km/h ) lufttryk ( hPa ) Humid.( % ) Rainrate ( cm ) solenergi ( W/m2 )
høj14,1 12,8 32,2 nv ( 1743/3385 ) 25,1 1021,5 100 - 399
gennemsnit12,7 10,8 16,1 nv #87/210 10,5 1019,2 89 - 207 #109/210
lav11,3 7,3 -   0,0 1017,0 67 -  
dagens Tabular details for torsdag 18 oktober 2018
tid Temp. ( °C ) Dew pt. ( °C ) vind ( km/h ) fra vindstød ( km/h ) lufttryk ( hPa ) Humid.( % ) Rainrate ( cm ) solenergi ( W/m2 )
00:04 13,3 12,8 5,6 syd 5,1 1017,2 97 - -
00:07 13,3 12,8 5,6 ssø 2,9 1017,2 97 - -
00:14 13,2 12,6 5,6 syd 2,4 1017,2 96 - -
00:19 13,2 12,6 8,0 syd 5,5 1017,2 96 - -
00:24 13,2 12,6 5,6 syd 3,5 1017,2 96 - -
00:29 13,1 12,4 8,0 syd 3,2 1017,2 96 - -
00:34 13,0 12,4 5,6 ssø 2,4 1017,2 96 - -
00:39 12,9 12,3 3,7 ssø 2,9 1017,2 96 - -
00:44 12,8 12,2 5,6 ssø 1,9 1017,3 96 - -
00:49 12,7 12,1 7,4 ssø 2,6 1017,3 96 - -
00:54 12,6 12,0 5,6 ssø 1,6 1017,3 96 - -
00:59 12,6 11,9 6,4 syd 2,7 1017,3 96 - -
01:04 12,4 11,8 5,6 ssø 3,9 1017,3 96 - -
01:09 12,4 11,8 5,6 ssø 3,7 1017,3 96 - -
01:14 12,4 11,9 8,0 syd 4,3 1017,3 97 - -
01:19 12,3 11,9 5,6 syd 2,9 1017,3 97 - -
01:24 12,3 11,8 5,6 ssø 4,7 1017,3 97 - -
01:29 12,3 11,8 5,6 ssø 4,3 1017,3 97 - -
01:34 12,2 11,8 5,6 syd 4,7 1017,3 97 - -
01:39 12,2 11,7 7,4 ssø 3,2 1017,2 97 - -
01:44 12,1 11,7 7,4 syd 3,4 1017,2 97 - -
01:49 12,0 11,6 5,6 syd 3,2 1017,2 97 - -
01:54 11,9 11,5 5,6 ssø 4,0 1017,2 97 - -
01:59 11,8 11,4 5,6 1,9 1017,2 97 - -
02:04 11,7 11,3 5,6 ssø 3,2 1017,1 97 - -
02:09 11,7 11,2 5,6 ssø 3,5 1017,1 97 - -
02:14 11,6 11,2 5,6 ssø 4,7 1017,0 97 - -
02:19 11,6 11,1 5,6 ssø 0,3 1017,1 97 - -
02:24 11,5 11,1 3,7 ssø 1,0 1017,1 97 - -
02:29 11,4 11,0 1,9 ssø 0,3 1017,2 97 - -
02:34 11,4 10,9   stille   1017,2 97 - -
02:39 11,4 10,9 1,9 ssø   1017,2 97 - -
02:44 11,3 10,9 1,9 vsv   1017,2 97 - -
02:49 11,3 11,3   stille   1017,2 100 - -
02:54 11,3 10,9 1,9 vest 0,2 1017,2 97 - -
02:59 11,4 11,4 3,2 vest 2,1 1017,2 100 - -
03:04 11,5 11,5 5,6 vest 2,4 1017,3 100 - -
03:09 11,7 11,7 5,6 vest 1,9 1017,4 100 - -
03:14 11,8 11,8 4,8 vsv 2,7 1017,3 100 - -
03:19 11,9 11,9 1,9 vnv 0,2 1017,3 100 - -
03:24 11,9 11,9 1,9 vnv 0,8 1017,3 100 - -
03:29 12,0 12,0 6,4 vnv 2,4 1017,3 100 - -
03:34 12,1 12,1 5,6 vnv 2,4 1017,3 100 - -
03:39 12,2 12,2 3,7 vnv 1,4 1017,3 100 - -
03:44 12,2 12,2 5,6 vnv 3,7 1017,2 100 - -
03:49 12,3 12,3 3,7 nnv 2,3 1017,3 100 - -
03:54 12,3 12,3   stille   1017,2 100 - -
03:59 12,3 12,3   stille   1017,3 100 - -
04:04 12,4 12,4 5,6 vnv 3,7 1017,4 100 - -
04:09 12,4 12,4 1,9 vnv   1017,4 100 - -
04:14 12,4 12,4 5,6 nv 1,3 1017,5 100 - -
04:19 12,5 12,5 6,4 vnv 1,8 1017,5 100 - -
04:24 12,5 12,5 6,4 vnv 5,0 1017,5 100 - -
04:29 12,6 12,6 8,0 nv 7,1 1017,5 100 - -
04:34 12,6 12,6 13,0 vnv 7,9 1017,4 100 - -
04:39 12,6 12,6 9,3 nv 5,6 1017,6 100 - -
04:44 12,7 12,7 9,7 vnv 7,2 1017,6 100 - -
04:49 12,7 12,7 9,3 nv 7,1 1017,6 100 - -
04:54 12,7 12,7 11,1 vnv 7,4 1017,5 100 - -
04:59 12,7 12,7 9,3 vnv 7,7 1017,6 100 - -
05:04 12,8 12,8 7,4 vnv 4,8 1017,5 100 - -
05:09 12,8 12,8 8,0 vnv 6,8 1017,5 100 - -
05:14 12,8 12,8 7,4 nv 5,8 1017,5 100 - -
05:19 12,8 12,8 6,4 nv 5,5 1017,5 100 - -
05:24 12,8 12,8 8,0 vnv 5,0 1017,5 100 - -
05:29 12,8 12,8 9,3 nv 6,4 1017,5 100 - -
05:34 12,8 12,8 8,0 vnv 5,1 1017,6 100 - -
05:39 12,8 12,8 11,1 nv 6,9 1017,7 100 - -
05:44 12,8 12,8 9,7 nv 7,1 1017,7 100 - -
05:49 12,8 12,8 11,1 nv 4,5 1017,7 100 - -
05:54 12,8 12,8 7,4 nv 3,9 1017,7 100 - -
05:59 12,8 12,8 5,6 nord 4,5 1017,8 100 - -
06:04 12,8 12,8 7,4 nv 4,7 1017,7 100 - -
06:09 12,7 12,7 5,6 nv 4,7 1017,7 100 - -
06:14 12,7 12,7 8,0 nv 5,1 1017,8 100 - -
06:19 12,7 12,7 5,6 nv 5,3 1017,8 100 - -
06:24 12,6 12,6 11,3 nv 3,4 1017,8 100 - -
06:29 12,6 12,6 9,3 nv 7,6 1017,8 100 - -
06:34 12,6 12,6 11,1 vnv 5,3 1017,8 100 - -
06:39 12,6 12,6 13,0 nnv 7,9 1017,9 100 - -
06:44 12,5 12,5 18,5 nv 12,2 1017,9 100 - -
06:49 12,5 12,5 17,7 nv 8,7 1017,9 100 - -
06:54 12,5 12,5 16,7 nv 10,9 1018,0 100 - -
06:59 12,5 12,5 18,5 nv 11,4 1018,0 100 - -
07:04 12,5 12,5 11,1 nv 10,1 1018,1 100 - -
07:09 12,5 12,5 19,3 vnv 13,4 1018,1 100 - -
07:14 12,5 12,5 18,5 vnv 9,7 1018,1 100 - -
07:19 12,4 12,4 18,5 vest 10,6 1018,3 100 - -
07:24 12,4 12,4 18,5 nv 13,4 1018,3 100 - -
07:29 12,4 12,4 18,5 vnv 13,4 1018,3 100 - -
07:34 12,4 12,4 14,8 nv 6,1 1018,4 100 - -
07:39 12,4 12,4 9,3 nv 4,7 1018,4 100 - -
07:44 12,4 12,4 14,8 nnv 10,8 1018,5 100 - -
07:49 12,3 12,3 12,9 vnv 7,6 1018,5 100 - -
07:54 12,3 12,3 14,5 nv 10,0 1018,5 100 - -
07:59 12,3 12,3 16,7 vnv 11,6 1018,5 100 - -
08:04 12,4 12,4 9,3 vnv 7,6 1018,6 100 - -
08:09 12,4 12,4 19,3 vest 11,1 1018,7 100 - -
08:14 12,4 12,4 18,5 nv 12,2 1018,7 100 - -
08:19 12,3 12,3 18,5 vnv 12,4 1018,8 100 - 5
08:24 12,3 12,3 16,1 nv 9,5 1018,9 100 - -
08:29 12,3 11,9 22,2 vest 13,7 1019,0 97 - 5
08:34 12,3 11,9 20,4 nv 12,6 1019,0 97 - -
08:39 12,3 11,8 24,1 nv 14,6 1019,0 97 - 9
08:44 12,2 11,8 20,4 nnv 15,4 1019,1 97 - 5
08:49 12,2 11,7 16,7 vnv 12,4 1019,2 97 - 5
08:54 12,1 11,7 25,9 vnv 15,4 1019,3 97 - 7
08:59 12,0 11,4 18,5 vest 12,9 1019,3 96 - 7
09:04 11,9 11,3 18,5 nv 11,4 1019,4 96 - 16
09:09 11,9 11,3 19,3 nv 11,4 1019,4 96 - 28
09:14 11,8 11,2 18,5 nv 9,8 1019,5 96 - 42
09:19 11,9 11,3 14,8 nnv 9,3 1019,5 96 - 49
09:24 11,9 11,3 18,5 vnv 14,0 1019,5 96 - 30
09:29 11,9 11,2 20,4 nnv 10,0 1019,6 95 - 39
09:34 11,9 11,2 18,5 nv 9,0 1019,6 95 - 60
09:39 11,9 11,1 18,5 vnv 11,3 1019,7 95 - 54
09:44 11,9 11,2 27,8 nv 11,9 1019,7 95 - 98
09:49 12,1 11,3 22,5 vest 13,4 1019,7 95 - 113
09:54 12,2 11,2 22,2 vnv 14,5 1019,8 94 - 84
09:59 12,2 11,3 20,4 nv 12,6 1019,9 94 - 114
10:04 12,3 11,2 24,1 nnv 17,7 1020,0 93 - 91
10:09 12,3 11,2 25,9 nv 16,9 1020,0 93 - 121
10:14 12,3 11,0 19,3 nv 10,3 1020,0 92 - 69
10:19 12,3 11,0 20,4 vnv 13,4 1020,0 92 - 206
10:24 12,3 11,1 20,4 nv 15,1 1020,1 92 - 244
10:29 12,4 11,1 22,2 nv 15,3 1020,1 92 - 262
10:34 12,4 11,2 22,5 nv 17,5 1020,2 92 - 313
10:39 12,5 11,1 25,9 nnv 16,3 1020,2 91 - 195
10:44 12,6 11,1 18,5 vest 10,3 1020,2 91 - 130
10:49 12,6 11,0 22,2 nv 16,9 1020,2 90 - 95
10:54 12,6 11,0 24,1 vnv 18,0 1020,3 90 - 105
10:59 12,6 10,8 24,1 vnv 16,9 1020,3 89 - 139
11:04 12,7 10,9 20,4 vest 9,5 1020,4 89 - 236
11:09 12,9 10,9 24,1 vnv 15,0 1020,4 88 - 102
11:14 12,9 10,8 19,3 vnv 8,0 1020,5 87 - 142
11:19 13,1 10,9 27,8 nv 21,2 1020,7 87 - 211
11:24 13,2 10,9 24,1 nv 15,0 1020,6 86 - 181
11:29 13,2 10,9 29,6 vnv 17,4 1020,7 86 - 171
11:34 13,1 10,8 24,1 vnv 18,8 1020,7 86 - 114
11:39 13,1 10,8 17,7 nv 11,7 1020,7 86 - 95
11:44 13,1 10,6 22,2 nnv 16,1 1020,7 85 - 299
11:49 13,2 10,5 22,2 nord 15,0 1020,8 84 - 353
11:54 13,4 10,7 25,9 nv 18,7 1020,8 84 - 292
11:59 13,5 10,7 27,8 vnv 12,9 1020,9 83 - 137
12:04 13,6 10,7 24,1 vnv 17,5 1020,9 83 - 399
12:09 13,6 10,4 25,9 nv 15,1 1020,9 81 - 392
12:14 13,8 10,8 25,9 nv 18,2 1020,9 82 - 369
12:19 13,8 10,3 24,1 nv 17,9 1021,0 79 - 327
12:24 13,9 10,6 18,5 vnv 11,9 1021,1 80 - 322
12:29 14,1 10,1 24,1 nv 11,1 1021,1 77 - 385
12:34 14,1 9,9 25,9 vnv 19,6 1021,0 76 - 390
12:39 14,0 9,2 32,2 nv 23,0 1021,0 73 - 390
12:44 14,0 9,2 25,9 vnv 12,7 1021,1 73 - 366
12:49 14,0 9,1 29,6 nv 18,7 1021,0 72 - 341
12:54 14,0 8,8 31,5 nv 24,3 1021,1 71 - 274
12:59 13,9 9,2 25,9 nv 19,6 1021,1 73 - 258
13:04 14,0 9,2 27,8 vnv 12,4 1021,1 73 - 311
13:09 13,9 8,8 25,9 nord 22,0 1021,2 71 - 352
13:14 13,9 8,7 18,5 nv 9,3 1021,1 71 - 371
13:19 13,9 8,3 27,8 nv 16,9 1021,1 69 - 380
13:24 13,8 8,2 25,7 nv 16,7 1021,0 69 - 378
13:29 13,8 7,9 27,8 nv 19,3 1021,0 68 - 383
13:34 13,7 7,7 25,9 nv 16,1 1020,9 67 - 383
13:39 13,7 8,3 20,4 vnv 12,2 1020,9 70 - 388
13:44 13,8 8,8 20,4 nnv 14,5 1020,8 72 - 387
13:49 13,6 8,2 22,2 nv 15,6 1020,7 70 - 385
13:54 13,5 8,8 18,5 nv 14,3 1020,7 73 - 381
13:59 13,4 8,5 22,2 nv 14,2 1020,8 72 - 376
14:04 13,5 8,9 19,3 vnv 15,9 1020,8 74 - 376
14:09 13,6 8,6 20,9 nnv 15,3 1020,9 72 - 369
14:14 13,6 8,6 25,9 nv 12,2 1020,9 72 - 366
14:19 13,6 8,8 22,2 nord 15,4 1021,0 73 - 362
14:24 13,6 8,8 25,7 nv 15,9 1021,0 73 - 359
14:29 13,6 8,4 27,8 nv 17,1 1021,0 71 - 355
14:34 13,5 8,6 27,4 nv 17,4 1021,1 72 - 348
14:39 13,6 8,0 25,9 vnv 20,0 1021,0 69 - 352
14:44 13,6 8,6 24,1 vnv 14,3 1021,1 72 - 341
14:49 13,7 8,5 29,6 nv 20,1 1021,1 71 - 334
14:54 13,7 8,6 17,7 nv 12,2 1021,2 71 - 325
14:59 13,7 8,3 27,8 vnv 17,4 1021,2 70 - 320
15:04 13,6 8,2 27,4 nv 18,5 1021,3 70 - 309
15:09 13,6 8,2 32,2 nv 25,1 1021,3 70 - 308
15:14 13,6 8,2 27,8 nv 23,0 1021,3 70 - 301
15:19 13,6 8,0 29,6 nv 17,5 1021,3 69 - 295
15:24 13,6 8,2 25,9 nv 19,1 1021,3 70 - 283
15:29 13,4 7,7 31,5 nv 22,0 1021,3 68 - 276
15:34 13,4 7,7 27,8 vnv 21,2 1021,4 68 - 267
15:39 13,3 7,5 25,9 nv 19,6 1021,4 68 - 257
15:44 13,1 7,6 22,2 nord 17,2 1021,4 69 - 257
15:49 12,9 7,3 24,1 vnv 16,7 1021,4 69 - 243
15:54 12,8 7,4 31,5 nv 20,9 1021,4 70 - 232
15:59 12,8 7,7 22,5 vest 15,1 1021,4 71 - 227
16:04 12,8 7,7 29,6 nv 20,6 1021,3 71 - 214
16:09 12,8 7,7 25,9 vnv 18,3 1021,4 71 - 206
16:14 12,7 7,8 24,1 nv 18,5 1021,3 72 - 218
16:19 12,7 7,9 17,7 nv 15,1 1021,3 73 - 171
16:24 12,6 7,7 25,9 nv 16,4 1021,3 72 - 51
16:29 12,4 7,7 25,9 nv 17,1 1021,4 73 - 113
16:34 12,3 7,8 24,1 nv 16,7 1021,3 74 - 40
16:39 12,2 7,7 18,5 nv 16,3 1021,3 74 - 35
16:44 12,1 7,8 18,5 nv 13,5 1021,4 75 - 32
16:49 12,1 7,8 16,7 nv 10,1 1021,4 75 - 30
16:54 12,1 7,8 18,5 nv 10,3 1021,3 75 - 26
16:59 12,0 7,7 22,5 nnv 16,6 1021,4 75 - 26
17:04 11,9 7,6 18,5 nord 13,0 1021,4 75 - 25
17:09 11,8 7,6 20,4 nnv 14,0 1021,4 75 - 23
17:14 11,8 7,7 24,1 vnv 16,7 1021,4 76 - 23
17:19 11,7 7,6 20,4 vnv 15,1 1021,4 76 - 21
17:24 11,6 7,7 18,5 vnv 14,3 1021,5 77 - 19
17:29 11,5 7,8 18,5 nv 13,5 1021,5 78 - 18
dagens sammenfatning af torsdag 18 oktober 2018
tid Temp. ( °C ) Dew pt. ( °C ) vind ( km/h ) fra vindstød ( km/h ) lufttryk ( hPa ) Humid.( % ) Rainrate ( cm ) solenergi ( W/m2 )
høj14,1 12,8 32,2 nv ( 1743/3385 ) 25,1 1021,5 100 - 399
gennemsnit12,7 10,8 16,1 nv #87/210 10,5 1019,2 89 - 207 #109/210
lav11,3 7,3 -   0,0 1017,0 67 -  
dagens Tabular details for torsdag 18 oktober 2018
tid Temp. ( °C ) Dew pt. ( °C ) vind ( km/h ) fra vindstød ( km/h ) lufttryk ( hPa ) Humid.( % ) Rainrate ( cm ) solenergi ( W/m2 )
00:04 13,3 12,8 5,6 syd 5,1 1017,2 97 - -
00:07 13,3 12,8 5,6 ssø 2,9 1017,2 97 - -
00:14 13,2 12,6 5,6 syd 2,4 1017,2 96 - -
00:19 13,2 12,6 8,0 syd 5,5 1017,2 96 - -
00:24 13,2 12,6 5,6 syd 3,5 1017,2 96 - -
00:29 13,1 12,4 8,0 syd 3,2 1017,2 96 - -
00:34 13,0 12,4 5,6 ssø 2,4 1017,2 96 - -
00:39 12,9 12,3 3,7 ssø 2,9 1017,2 96 - -
00:44 12,8 12,2 5,6 ssø 1,9 1017,3 96 - -
00:49 12,7 12,1 7,4 ssø 2,6 1017,3 96 - -
00:54 12,6 12,0 5,6 ssø 1,6 1017,3 96 - -
00:59 12,6 11,9 6,4 syd 2,7 1017,3 96 - -
01:04 12,4 11,8 5,6 ssø 3,9 1017,3 96 - -
01:09 12,4 11,8 5,6 ssø 3,7 1017,3 96 - -
01:14 12,4 11,9 8,0 syd 4,3 1017,3 97 - -
01:19 12,3 11,9 5,6 syd 2,9 1017,3 97 - -
01:24 12,3 11,8 5,6 ssø 4,7 1017,3 97 - -
01:29 12,3 11,8 5,6 ssø 4,3 1017,3 97 - -
01:34 12,2 11,8 5,6 syd 4,7 1017,3 97 - -
01:39 12,2 11,7 7,4 ssø 3,2 1017,2 97 - -
01:44 12,1 11,7 7,4 syd 3,4 1017,2 97 - -
01:49 12,0 11,6 5,6 syd 3,2 1017,2 97 - -
01:54 11,9 11,5 5,6 ssø 4,0 1017,2 97 - -
01:59 11,8 11,4 5,6 1,9 1017,2 97 - -
02:04 11,7 11,3 5,6 ssø 3,2 1017,1 97 - -
02:09 11,7 11,2 5,6 ssø 3,5 1017,1 97 - -
02:14 11,6 11,2 5,6 ssø 4,7 1017,0 97 - -
02:19 11,6 11,1 5,6 ssø 0,3 1017,1 97 - -
02:24 11,5 11,1 3,7 ssø 1,0 1017,1 97 - -
02:29 11,4 11,0 1,9 ssø 0,3 1017,2 97 - -
02:34 11,4 10,9   stille   1017,2 97 - -
02:39 11,4 10,9 1,9 ssø   1017,2 97 - -
02:44 11,3 10,9 1,9 vsv   1017,2 97 - -
02:49 11,3 11,3   stille   1017,2 100 - -
02:54 11,3 10,9 1,9 vest 0,2 1017,2 97 - -
02:59 11,4 11,4 3,2 vest 2,1 1017,2 100 - -
03:04 11,5 11,5 5,6 vest 2,4 1017,3 100 - -
03:09 11,7 11,7 5,6 vest 1,9 1017,4 100 - -
03:14 11,8 11,8 4,8 vsv 2,7 1017,3 100 - -
03:19 11,9 11,9 1,9 vnv 0,2 1017,3 100 - -
03:24 11,9 11,9 1,9 vnv 0,8 1017,3 100 - -
03:29 12,0 12,0 6,4 vnv 2,4 1017,3 100 - -
03:34 12,1 12,1 5,6 vnv 2,4 1017,3 100 - -
03:39 12,2 12,2 3,7 vnv 1,4 1017,3 100 - -
03:44 12,2 12,2 5,6 vnv 3,7 1017,2 100 - -
03:49 12,3 12,3 3,7 nnv 2,3 1017,3 100 - -
03:54 12,3 12,3   stille   1017,2 100 - -
03:59 12,3 12,3   stille   1017,3 100 - -
04:04 12,4 12,4 5,6 vnv 3,7 1017,4 100 - -
04:09 12,4 12,4 1,9 vnv   1017,4 100 - -
04:14 12,4 12,4 5,6 nv 1,3 1017,5 100 - -
04:19 12,5 12,5 6,4 vnv 1,8 1017,5 100 - -
04:24 12,5 12,5 6,4 vnv 5,0 1017,5 100 - -
04:29 12,6 12,6 8,0 nv 7,1 1017,5 100 - -
04:34 12,6 12,6 13,0 vnv 7,9 1017,4 100 - -
04:39 12,6 12,6 9,3 nv 5,6 1017,6 100 - -
04:44 12,7 12,7 9,7 vnv 7,2 1017,6 100 - -
04:49 12,7 12,7 9,3 nv 7,1 1017,6 100 - -
04:54 12,7 12,7 11,1 vnv 7,4 1017,5 100 - -
04:59 12,7 12,7 9,3 vnv 7,7 1017,6 100 - -
05:04 12,8 12,8 7,4 vnv 4,8 1017,5 100 - -
05:09 12,8 12,8 8,0 vnv 6,8 1017,5 100 - -
05:14 12,8 12,8 7,4 nv 5,8 1017,5 100 - -
05:19 12,8 12,8 6,4 nv 5,5 1017,5 100 - -
05:24 12,8 12,8 8,0 vnv 5,0 1017,5 100 - -
05:29 12,8 12,8 9,3 nv 6,4 1017,5 100 - -
05:34 12,8 12,8 8,0 vnv 5,1 1017,6 100 - -
05:39 12,8 12,8 11,1 nv 6,9 1017,7 100 - -
05:44 12,8 12,8 9,7 nv 7,1 1017,7 100 - -
05:49 12,8 12,8 11,1 nv 4,5 1017,7 100 - -
05:54 12,8 12,8 7,4 nv 3,9 1017,7 100 - -
05:59 12,8 12,8 5,6 nord 4,5 1017,8 100 - -
06:04 12,8 12,8 7,4 nv 4,7 1017,7 100 - -
06:09 12,7 12,7 5,6 nv 4,7 1017,7 100 - -
06:14 12,7 12,7 8,0 nv 5,1 1017,8 100 - -
06:19 12,7 12,7 5,6 nv 5,3 1017,8 100 - -
06:24 12,6 12,6 11,3 nv 3,4 1017,8 100 - -
06:29 12,6 12,6 9,3 nv 7,6 1017,8 100 - -
06:34 12,6 12,6 11,1 vnv 5,3 1017,8 100 - -
06:39 12,6 12,6 13,0 nnv 7,9 1017,9 100 - -
06:44 12,5 12,5 18,5 nv 12,2 1017,9 100 - -
06:49 12,5 12,5 17,7 nv 8,7 1017,9 100 - -
06:54 12,5 12,5 16,7 nv 10,9 1018,0 100 - -
06:59 12,5 12,5 18,5 nv 11,4 1018,0 100 - -
07:04 12,5 12,5 11,1 nv 10,1 1018,1 100 - -
07:09 12,5 12,5 19,3 vnv 13,4 1018,1 100 - -
07:14 12,5 12,5 18,5 vnv 9,7 1018,1 100 - -
07:19 12,4 12,4 18,5 vest 10,6 1018,3 100 - -
07:24 12,4 12,4 18,5 nv 13,4 1018,3 100 - -
07:29 12,4 12,4 18,5 vnv 13,4 1018,3 100 - -
07:34 12,4 12,4 14,8 nv 6,1 1018,4 100 - -
07:39 12,4 12,4 9,3 nv 4,7 1018,4 100 - -
07:44 12,4 12,4 14,8 nnv 10,8 1018,5 100 - -
07:49 12,3 12,3 12,9 vnv 7,6 1018,5 100 - -
07:54 12,3 12,3 14,5 nv 10,0 1018,5 100 - -
07:59 12,3 12,3 16,7 vnv 11,6 1018,5 100 - -
08:04 12,4 12,4 9,3 vnv 7,6 1018,6 100 - -
08:09 12,4 12,4 19,3 vest 11,1 1018,7 100 - -
08:14 12,4 12,4 18,5 nv 12,2 1018,7 100 - -
08:19 12,3 12,3 18,5 vnv 12,4 1018,8 100 - 5
08:24 12,3 12,3 16,1 nv 9,5 1018,9 100 - -
08:29 12,3 11,9 22,2 vest 13,7 1019,0 97 - 5
08:34 12,3 11,9 20,4 nv 12,6 1019,0 97 - -
08:39 12,3 11,8 24,1 nv 14,6 1019,0 97 - 9
08:44 12,2 11,8 20,4 nnv 15,4 1019,1 97 - 5
08:49 12,2 11,7 16,7 vnv 12,4 1019,2 97 - 5
08:54 12,1 11,7 25,9 vnv 15,4 1019,3 97 - 7
08:59 12,0 11,4 18,5 vest 12,9 1019,3 96 - 7
09:04 11,9 11,3 18,5 nv 11,4 1019,4 96 - 16
09:09 11,9 11,3 19,3 nv 11,4 1019,4 96 - 28
09:14 11,8 11,2 18,5 nv 9,8 1019,5 96 - 42
09:19 11,9 11,3 14,8 nnv 9,3 1019,5 96 - 49
09:24 11,9 11,3 18,5 vnv 14,0 1019,5 96 - 30
09:29 11,9 11,2 20,4 nnv 10,0 1019,6 95 - 39
09:34 11,9 11,2 18,5 nv 9,0 1019,6 95 - 60
09:39 11,9 11,1 18,5 vnv 11,3 1019,7 95 - 54
09:44 11,9 11,2 27,8 nv 11,9 1019,7 95 - 98
09:49 12,1 11,3 22,5 vest 13,4 1019,7 95 - 113
09:54 12,2 11,2 22,2 vnv 14,5 1019,8 94 - 84
09:59 12,2 11,3 20,4 nv 12,6 1019,9 94 - 114
10:04 12,3 11,2 24,1 nnv 17,7 1020,0 93 - 91
10:09 12,3 11,2 25,9 nv 16,9 1020,0 93 - 121
10:14 12,3 11,0 19,3 nv 10,3 1020,0 92 - 69
10:19 12,3 11,0 20,4 vnv 13,4 1020,0 92 - 206
10:24 12,3 11,1 20,4 nv 15,1 1020,1 92 - 244
10:29 12,4 11,1 22,2 nv 15,3 1020,1 92 - 262
10:34 12,4 11,2 22,5 nv 17,5 1020,2 92 - 313
10:39 12,5 11,1 25,9 nnv 16,3 1020,2 91 - 195
10:44 12,6 11,1 18,5 vest 10,3 1020,2 91 - 130
10:49 12,6 11,0 22,2 nv 16,9 1020,2 90 - 95
10:54 12,6 11,0 24,1 vnv 18,0 1020,3 90 - 105
10:59 12,6 10,8 24,1 vnv 16,9 1020,3 89 - 139
11:04 12,7 10,9 20,4 vest 9,5 1020,4 89 - 236
11:09 12,9 10,9 24,1 vnv 15,0 1020,4 88 - 102
11:14 12,9 10,8 19,3 vnv 8,0 1020,5 87 - 142
11:19 13,1 10,9 27,8 nv 21,2 1020,7 87 - 211
11:24 13,2 10,9 24,1 nv 15,0 1020,6 86 - 181
11:29 13,2 10,9 29,6 vnv 17,4 1020,7 86 - 171
11:34 13,1 10,8 24,1 vnv 18,8 1020,7 86 - 114
11:39 13,1 10,8 17,7 nv 11,7 1020,7 86 - 95
11:44 13,1 10,6 22,2 nnv 16,1 1020,7 85 - 299
11:49 13,2 10,5 22,2 nord 15,0 1020,8 84 - 353
11:54 13,4 10,7 25,9 nv 18,7 1020,8 84 - 292
11:59 13,5 10,7 27,8 vnv 12,9 1020,9 83 - 137
12:04 13,6 10,7 24,1 vnv 17,5 1020,9 83 - 399
12:09 13,6 10,4 25,9 nv 15,1 1020,9 81 - 392
12:14 13,8 10,8 25,9 nv 18,2 1020,9 82 - 369
12:19 13,8 10,3 24,1 nv 17,9 1021,0 79 - 327
12:24 13,9 10,6 18,5 vnv 11,9 1021,1 80 - 322
12:29 14,1 10,1 24,1 nv 11,1 1021,1 77 - 385
12:34 14,1 9,9 25,9 vnv 19,6 1021,0 76 - 390
12:39 14,0 9,2 32,2 nv 23,0 1021,0 73 - 390
12:44 14,0 9,2 25,9 vnv 12,7 1021,1 73 - 366
12:49 14,0 9,1 29,6 nv 18,7 1021,0 72 - 341
12:54 14,0 8,8 31,5 nv 24,3 1021,1 71 - 274
12:59 13,9 9,2 25,9 nv 19,6 1021,1 73 - 258
13:04 14,0 9,2 27,8 vnv 12,4 1021,1 73 - 311
13:09 13,9 8,8 25,9 nord 22,0 1021,2 71 - 352
13:14 13,9 8,7 18,5 nv 9,3 1021,1 71 - 371
13:19 13,9 8,3 27,8 nv 16,9 1021,1 69 - 380
13:24 13,8 8,2 25,7 nv 16,7 1021,0 69 - 378
13:29 13,8 7,9 27,8 nv 19,3 1021,0 68 - 383
13:34 13,7 7,7 25,9 nv 16,1 1020,9 67 - 383
13:39 13,7 8,3 20,4 vnv 12,2 1020,9 70 - 388
13:44 13,8 8,8 20,4 nnv 14,5 1020,8 72 - 387
13:49 13,6 8,2 22,2 nv 15,6 1020,7 70 - 385
13:54 13,5 8,8 18,5 nv 14,3 1020,7 73 - 381
13:59 13,4 8,5 22,2 nv 14,2 1020,8 72 - 376
14:04 13,5 8,9 19,3 vnv 15,9 1020,8 74 - 376
14:09 13,6 8,6 20,9 nnv 15,3 1020,9 72 - 369
14:14 13,6 8,6 25,9 nv 12,2 1020,9 72 - 366
14:19 13,6 8,8 22,2 nord 15,4 1021,0 73 - 362
14:24 13,6 8,8 25,7 nv 15,9 1021,0 73 - 359
14:29 13,6 8,4 27,8 nv 17,1 1021,0 71 - 355
14:34 13,5 8,6 27,4 nv 17,4 1021,1 72 - 348
14:39 13,6 8,0 25,9 vnv 20,0 1021,0 69 - 352
14:44 13,6 8,6 24,1 vnv 14,3 1021,1 72 - 341
14:49 13,7 8,5 29,6 nv 20,1 1021,1 71 - 334
14:54 13,7 8,6 17,7 nv 12,2 1021,2 71 - 325
14:59 13,7 8,3 27,8 vnv 17,4 1021,2 70 - 320
15:04 13,6 8,2 27,4 nv 18,5 1021,3 70 - 309
15:09 13,6 8,2 32,2 nv 25,1 1021,3 70 - 308
15:14 13,6 8,2 27,8 nv 23,0 1021,3 70 - 301
15:19 13,6 8,0 29,6 nv 17,5 1021,3 69 - 295
15:24 13,6 8,2 25,9 nv 19,1 1021,3 70 - 283
15:29 13,4 7,7 31,5 nv 22,0 1021,3 68 - 276
15:34 13,4 7,7 27,8 vnv 21,2 1021,4 68 - 267
15:39 13,3 7,5 25,9 nv 19,6 1021,4 68 - 257
15:44 13,1 7,6 22,2 nord 17,2 1021,4 69 - 257
15:49 12,9 7,3 24,1 vnv 16,7 1021,4 69 - 243
15:54 12,8 7,4 31,5 nv 20,9 1021,4 70 - 232
15:59 12,8 7,7 22,5 vest 15,1 1021,4 71 - 227
16:04 12,8 7,7 29,6 nv 20,6 1021,3 71 - 214
16:09 12,8 7,7 25,9 vnv 18,3 1021,4 71 - 206
16:14 12,7 7,8 24,1 nv 18,5 1021,3 72 - 218
16:19 12,7 7,9 17,7 nv 15,1 1021,3 73 - 171
16:24 12,6 7,7 25,9 nv 16,4 1021,3 72 - 51
16:29 12,4 7,7 25,9 nv 17,1 1021,4 73 - 113
16:34 12,3 7,8 24,1 nv 16,7 1021,3 74 - 40
16:39 12,2 7,7 18,5 nv 16,3 1021,3 74 - 35
16:44 12,1 7,8 18,5 nv 13,5 1021,4 75 - 32
16:49 12,1 7,8 16,7 nv 10,1 1021,4 75 - 30
16:54 12,1 7,8 18,5 nv 10,3 1021,3 75 - 26
16:59 12,0 7,7 22,5 nnv 16,6 1021,4 75 - 26
17:04 11,9 7,6 18,5 nord 13,0 1021,4 75 - 25
17:09 11,8 7,6 20,4 nnv 14,0 1021,4 75 - 23
17:14 11,8 7,7 24,1 vnv 16,7 1021,4 76 - 23
17:19 11,7 7,6 20,4 vnv 15,1 1021,4 76 - 21
17:24 11,6 7,7 18,5 vnv 14,3 1021,5 77 - 19
17:29 11,5 7,8 18,5 nv 13,5 1021,5 78 - 18

Download your copy of this data-set  here

Our weather-data as stored at Weather Underground. script udviklet af Jim McMurry. tilpasset til dette template Leuven-Template.eu

du finder også vores vejrinformationer på:

European Weather Network

Weather Underground

AWEKAS

WeatherlinkIP

Citizen Weather Observer Program (CWOP)

udstyr som vi anvender:

vejrstation
Davis VP2+

vejrprogram
Weather Display

vejrserver
Dell E6400

hjemmeside host
Webhosting.dk

Davis VP2+

Weather Display

Dell E6400

Webhosting.dk